Station Historical Data
Daily Summary for March 5, 2012 Units:  English    Metric   Both
« Previous Day
Next Day »
Daily Weekly Monthly Yearly Custom
  High: Low: Average:
Temperature: 52.5 °F 38.1 °F 46.2 °F
Dew Point: 32.7 °F 19.9 °F 26 °F
Humidity: 65% 28% 46%
Wind Speed: 20.0mph 0.0mph 6.3mph
Wind Gust: 23.0mph - -
Wind- - SW
Pressure: 30.43 in 29.92 in -
Precipitation: 0.00 in    
Historical Graphs
 
 
Tabular Data for March 5, 2012
Time Temperature Dew Point Pressure Wind Wind Speed Wind Gust Humidity Rainfall Rate (Hourly) Conditions
00:00 51.3 °F 28.4 °F 29.93 in SW 12.0 mph 15.0 mph 41% 0.00 in
00:01 51.3 °F 28.4 °F 29.92 in WSW 11.0 mph 15.0 mph 41% 0.00 in
00:06 51.4 °F 28.5 °F 29.93 in SW 18.0 mph 18.0 mph 41% 0.00 in
00:11 51.4 °F 29.1 °F 29.93 in West 8.0 mph 16.0 mph 42% 0.00 in
00:16 51.8 °F 28.9 °F 29.92 in WSW 14.0 mph 19.0 mph 41% 0.00 in
00:21 52.0 °F 28.5 °F 29.93 in SW 18.0 mph 23.0 mph 40% 0.00 in
00:26 52.2 °F 29.2 °F 29.93 in WSW 10.0 mph 20.0 mph 41% 0.00 in
00:31 52.4 °F 28.8 °F 29.93 in SW 10.0 mph 21.0 mph 40% 0.00 in
00:36 52.4 °F 29.4 °F 29.93 in SW 11.0 mph 16.0 mph 41% 0.00 in
00:37 52.3 °F 29.3 °F 29.93 in WSW 14.0 mph 17.0 mph 41% 0.00 in
00:42 52.5 °F 28.9 °F 29.93 in SW 9.0 mph 19.0 mph 40% 0.00 in
00:47 52.4 °F 29.4 °F 29.94 in West 12.0 mph 16.0 mph 41% 0.00 in
00:52 52.2 °F 29.2 °F 29.93 in SW 8.0 mph 17.0 mph 41% 0.00 in
00:57 52.2 °F 29.2 °F 29.93 in WSW 12.0 mph 19.0 mph 41% 0.00 in
01:02 52.1 °F 29.1 °F 29.93 in SW 10.0 mph 15.0 mph 41% 0.00 in
01:07 52.0 °F 29.6 °F 29.93 in SW 10.0 mph 17.0 mph 42% 0.00 in
01:12 51.8 °F 29.5 °F 29.93 in WSW 8.0 mph 15.0 mph 42% 0.00 in
01:17 51.7 °F 29.4 °F 29.93 in WSW 14.0 mph 17.0 mph 42% 0.00 in
01:22 51.6 °F 29.9 °F 29.94 in West 11.0 mph 12.0 mph 43% 0.00 in
01:27 51.5 °F 30.3 °F 29.94 in West 10.0 mph 14.0 mph 44% 0.00 in
01:32 51.5 °F 29.8 °F 29.94 in West 8.0 mph 12.0 mph 43% 0.00 in
01:37 51.4 °F 30.2 °F 29.94 in WSW 8.0 mph 11.0 mph 44% 0.00 in
01:42 51.2 °F 30.0 °F 29.95 in West 9.0 mph 12.0 mph 44% 0.00 in
01:47 51.3 °F 30.1 °F 29.95 in West 8.0 mph 16.0 mph 44% 0.00 in
01:52 51.5 °F 30.3 °F 29.96 in West 5.0 mph 12.0 mph 44% 0.00 in
01:57 51.4 °F 30.2 °F 29.96 in West 11.0 mph 15.0 mph 44% 0.00 in
02:02 51.4 °F 30.2 °F 29.97 in WSW 10.0 mph 13.0 mph 44% 0.00 in
02:07 51.4 °F 30.2 °F 29.97 in West 7.0 mph 11.0 mph 44% 0.00 in
02:12 51.5 °F 30.3 °F 29.98 in West 7.0 mph 8.0 mph 44% 0.00 in
02:17 51.4 °F 30.2 °F 29.98 in West 5.0 mph 10.0 mph 44% 0.00 in
02:23 51.4 °F 30.2 °F 29.98 in West 8.0 mph 11.0 mph 44% 0.00 in
02:28 51.4 °F 30.2 °F 29.99 in WNW 10.0 mph 10.0 mph 44% 0.00 in
02:33 51.4 °F 30.2 °F 29.99 in WNW 5.0 mph 11.0 mph 44% 0.00 in
02:38 51.3 °F 30.1 °F 29.99 in WNW 8.0 mph 13.0 mph 44% 0.00 in
02:43 51.1 °F 30.5 °F 30.00 in WNW 5.0 mph 9.0 mph 45% 0.00 in
02:48 51.0 °F 30.4 °F 30.00 in West 6.0 mph 9.0 mph 45% 0.00 in
02:53 51.0 °F 30.4 °F 30.01 in WNW 8.0 mph 12.0 mph 45% 0.00 in
02:58 51.1 °F 30.5 °F 30.01 in West 13.0 mph 14.0 mph 45% 0.00 in
03:03 51.3 °F 30.7 °F 30.01 in WNW 7.0 mph 16.0 mph 45% 0.00 in
03:08 51.2 °F 31.1 °F 30.02 in WNW 7.0 mph 17.0 mph 46% 0.00 in
03:13 51.2 °F 31.1 °F 30.02 in WNW 10.0 mph 12.0 mph 46% 0.00 in
03:18 50.9 °F 31.4 °F 30.02 in NW 11.0 mph 17.0 mph 47% 0.00 in
03:23 50.8 °F 32.3 °F 30.03 in WNW 9.0 mph 14.0 mph 49% 0.00 in
03:28 50.6 °F 32.7 °F 30.03 in NW 7.0 mph 11.0 mph 50% 0.00 in
03:33 50.3 °F 32.4 °F 30.04 in WNW 8.0 mph 10.0 mph 50% 0.00 in
03:38 50.1 °F 32.2 °F 30.04 in West 18.0 mph 18.0 mph 50% 0.00 in
03:43 49.9 °F 31.5 °F 30.05 in WNW 11.0 mph 19.0 mph 49% 0.00 in
03:48 49.6 °F 31.2 °F 30.05 in WNW 9.0 mph 12.0 mph 49% 0.00 in
03:53 49.0 °F 31.2 °F 30.05 in NW 9.0 mph 9.0 mph 50% 0.00 in
03:58 48.9 °F 31.1 °F 30.05 in WNW 8.0 mph 16.0 mph 50% 0.00 in
04:03 48.5 °F 30.7 °F 30.06 in WNW 10.0 mph 15.0 mph 50% 0.00 in
04:08 48.5 °F 29.7 °F 30.07 in West 11.0 mph 20.0 mph 48% 0.00 in
04:13 48.3 °F 28.5 °F 30.07 in West 14.0 mph 19.0 mph 46% 0.00 in
04:18 48.1 °F 27.8 °F 30.07 in WNW 10.0 mph 23.0 mph 45% 0.00 in
04:23 47.7 °F 27.4 °F 30.08 in NW 12.0 mph 16.0 mph 45% 0.00 in
04:28 47.3 °F 27.0 °F 30.08 in NW 9.0 mph 13.0 mph 45% 0.00 in
04:33 47.0 °F 27.3 °F 30.09 in WNW 12.0 mph 16.0 mph 46% 0.00 in
04:38 46.8 °F 27.1 °F 30.09 in WNW 9.0 mph 17.0 mph 46% 0.00 in
04:43 46.4 °F 27.3 °F 30.10 in WNW 6.0 mph 13.0 mph 47% 0.00 in
04:48 46.1 °F 27.5 °F 30.10 in NW 12.0 mph 18.0 mph 48% 0.00 in
04:53 45.8 °F 27.7 °F 30.11 in WNW 9.0 mph 12.0 mph 49% 0.00 in
04:58 45.6 °F 27.6 °F 30.11 in WNW 8.0 mph 13.0 mph 49% 0.00 in
05:03 45.3 °F 28.2 °F 30.12 in NNW 7.0 mph 13.0 mph 51% 0.00 in
05:08 44.9 °F 29.3 °F 30.12 in NNW 8.0 mph 19.0 mph 54% 0.00 in
05:13 44.2 °F 29.5 °F 30.13 in NW 11.0 mph 11.0 mph 56% 0.00 in
05:19 43.9 °F 29.7 °F 30.13 in NW 7.0 mph 18.0 mph 57% 0.00 in
05:23 43.5 °F 29.3 °F 30.14 in NW 10.0 mph 17.0 mph 57% 0.00 in
05:29 43.3 °F 28.7 °F 30.15 in NW 20.0 mph 20.0 mph 56% 0.00 in
05:34 43.0 °F 28.0 °F 30.16 in NW 8.0 mph 22.0 mph 55% 0.00 in
05:39 42.7 °F 27.7 °F 30.16 in NW 12.0 mph 18.0 mph 55% 0.00 in
05:44 42.4 °F 27.4 °F 30.17 in NW 11.0 mph 18.0 mph 55% 0.00 in
05:49 42.2 °F 27.6 °F 30.17 in NW 12.0 mph 21.0 mph 56% 0.00 in
05:54 41.8 °F 27.7 °F 30.18 in NW 11.0 mph 15.0 mph 57% 0.00 in
05:59 41.6 °F 27.5 °F 30.18 in WNW 17.0 mph 17.0 mph 57% 0.00 in
06:04 41.4 °F 27.8 °F 30.19 in NW 12.0 mph 14.0 mph 58% 0.00 in
06:09 41.2 °F 27.6 °F 30.20 in WNW 13.0 mph 21.0 mph 58% 0.00 in
06:14 41.1 °F 27.5 °F 30.20 in NW 12.0 mph 15.0 mph 58% 0.00 in
06:19 40.8 °F 27.6 °F 30.20 in WNW 12.0 mph 12.0 mph 59% 0.00 in
06:24 40.5 °F 27.7 °F 30.21 in NW 9.0 mph 11.0 mph 60% 0.00 in
06:29 40.3 °F 27.9 °F 30.21 in NW 9.0 mph 15.0 mph 61% 0.00 in
06:34 40.1 °F 27.8 °F 30.22 in WNW 6.0 mph 10.0 mph 61% 0.00 in
06:39 40.0 °F 27.6 °F 30.22 in WNW 7.0 mph 16.0 mph 61% 0.00 in
06:44 40.0 °F 27.6 °F 30.23 in NW 8.0 mph 14.0 mph 61% 0.00 in
06:49 39.9 °F 27.6 °F 30.23 in WNW 8.0 mph 11.0 mph 61% 0.00 in
06:54 39.5 °F 27.2 °F 30.23 in WNW 9.0 mph 12.0 mph 61% 0.00 in
06:59 39.3 °F 27.4 °F 30.23 in NW 8.0 mph 11.0 mph 62% 0.00 in
07:04 39.3 °F 27.4 °F 30.24 in NW 5.0 mph 10.0 mph 62% 0.00 in
07:09 38.9 °F 27.4 °F 30.24 in NNW 5.0 mph 7.0 mph 63% 0.00 in
07:14 38.5 °F 27.4 °F 30.25 in NNW 6.0 mph 6.0 mph 64% 0.00 in
07:19 38.3 °F 27.2 °F 30.25 in NW 5.0 mph 6.0 mph 64% 0.00 in
07:24 38.3 °F 27.6 °F 30.26 in NW 3.0 mph 6.0 mph 65% 0.00 in
07:29 38.1 °F 27.4 °F 30.26 in NNW 5.0 mph 7.0 mph 65% 0.00 in
07:34 38.1 °F 27.4 °F 30.26 in NW 12.0 mph 12.0 mph 65% 0.00 in
07:39 38.5 °F 27.4 °F 30.27 in North 10.0 mph 15.0 mph 64% 0.00 in
07:44 38.7 °F 27.2 °F 30.27 in NNW 8.0 mph 12.0 mph 63% 0.00 in
07:49 38.8 °F 26.9 °F 30.27 in WNW 5.0 mph 12.0 mph 62% 0.00 in
07:54 38.8 °F 27.3 °F 30.28 in NNW 3.0 mph 11.0 mph 63% 0.00 in
07:59 38.8 °F 27.3 °F 30.28 in North 7.0 mph 10.0 mph 63% 0.00 in
08:04 38.8 °F 26.9 °F 30.28 in NW 10.0 mph 14.0 mph 62% 0.00 in
08:09 38.9 °F 27.0 °F 30.28 in NNW 9.0 mph 15.0 mph 62% 0.00 in
08:14 39.0 °F 27.1 °F 30.29 in NNE 10.0 mph 11.0 mph 62% 0.00 in
08:19 39.1 °F 27.2 °F 30.29 in NW 6.0 mph 13.0 mph 62% 0.00 in
08:24 39.2 °F 27.3 °F 30.30 in North 9.0 mph 12.0 mph 62% 0.00 in
08:29 39.3 °F 27.0 °F 30.30 in NW 9.0 mph 14.0 mph 61% 0.00 in
08:34 39.3 °F 26.6 °F 30.30 in NW 19.0 mph 19.0 mph 60% 0.00 in
08:39 39.3 °F 26.6 °F 30.31 in NW 14.0 mph 19.0 mph 60% 0.00 in
08:44 39.4 °F 26.3 °F 30.31 in NW 10.0 mph 17.0 mph 59% 0.00 in
08:49 39.7 °F 27.0 °F 30.32 in NW 8.0 mph 14.0 mph 60% 0.00 in
08:54 39.8 °F 26.7 °F 30.32 in NW 10.0 mph 15.0 mph 59% 0.00 in
08:59 40.1 °F 27.4 °F 30.33 in NW 5.0 mph 12.0 mph 60% 0.00 in
09:04 40.6 °F 27.8 °F 30.33 in NW 12.0 mph 13.0 mph 60% 0.00 in
09:09 40.6 °F 27.0 °F 30.33 in NW 7.0 mph 15.0 mph 58% 0.00 in
09:14 40.9 °F 27.7 °F 30.34 in North 11.0 mph 14.0 mph 59% 0.00 in
09:19 40.8 °F 27.2 °F 30.34 in NW 9.0 mph 15.0 mph 58% 0.00 in
09:24 41.1 °F 27.0 °F 30.34 in NNW 6.0 mph 13.0 mph 57% 0.00 in
09:29 41.3 °F 26.8 °F 30.35 in NNW 10.0 mph 12.0 mph 56% 0.00 in
09:34 41.4 °F 26.9 °F 30.35 in NW 7.0 mph 15.0 mph 56% 0.00 in
09:39 41.5 °F 27.0 °F 30.35 in NW 5.0 mph 12.0 mph 56% 0.00 in
09:44 41.8 °F 26.8 °F 30.35 in NW 6.0 mph 13.0 mph 55% 0.00 in
09:50 41.6 °F 27.1 °F 30.36 in North 9.0 mph 14.0 mph 56% 0.00 in
09:55 42.0 °F 27.0 °F 30.36 in NW 9.0 mph 13.0 mph 55% 0.00 in
10:00 42.3 °F 27.7 °F 30.36 in NW 7.0 mph 10.0 mph 56% 0.00 in
10:05 42.5 °F 27.5 °F 30.37 in NNW 3.0 mph 11.0 mph 55% 0.00 in
10:10 42.6 °F 28.0 °F 30.37 in WNW 8.0 mph 9.0 mph 56% 0.00 in
10:15 42.6 °F 27.1 °F 30.38 in WNW 8.0 mph 14.0 mph 54% 0.00 in
10:20 42.9 °F 27.9 °F 30.38 in NNE 10.0 mph 13.0 mph 55% 0.00 in
10:25 43.1 °F 27.6 °F 30.38 in NNW 8.0 mph 10.0 mph 54% 0.00 in
10:30 43.1 °F 27.6 °F 30.38 in WNW 7.0 mph 11.0 mph 54% 0.00 in
10:35 43.6 °F 28.5 °F 30.38 in NNW 7.0 mph 13.0 mph 55% 0.00 in
10:37 43.5 °F 27.5 °F 30.38 in NW 5.0 mph 14.0 mph 53% 0.00 in
10:42 43.6 °F 27.1 °F 30.39 in WNW 5.0 mph 15.0 mph 52% 0.00 in
10:47 43.9 °F 28.8 °F 30.39 in North 8.0 mph 11.0 mph 55% 0.00 in
10:52 43.9 °F 28.4 °F 30.39 in NW 5.0 mph 12.0 mph 54% 0.00 in
10:57 44.2 °F 28.2 °F 30.39 in NNW 10.0 mph 10.0 mph 53% 0.00 in
11:02 44.2 °F 27.2 °F 30.39 in NW 6.0 mph 13.0 mph 51% 0.00 in
11:07 44.4 °F 26.5 °F 30.39 in NW 9.0 mph 13.0 mph 49% 0.00 in
11:12 44.6 °F 27.1 °F 30.39 in North 11.0 mph 11.0 mph 50% 0.00 in
11:17 44.6 °F 26.6 °F 30.40 in NNE 5.0 mph 13.0 mph 49% 0.00 in
11:22 44.8 °F 28.3 °F 30.40 in NNW 8.0 mph 10.0 mph 52% 0.00 in
11:28 45.2 °F 28.2 °F 30.40 in NE 7.0 mph 10.0 mph 51% 0.00 in
11:33 45.2 °F 25.7 °F 30.40 in NNW 9.0 mph 12.0 mph 46% 0.00 in
11:38 45.7 °F 26.6 °F 30.40 in NNW 11.0 mph 14.0 mph 47% 0.00 in
11:43 45.6 °F 26.5 °F 30.40 in WNW 6.0 mph 11.0 mph 47% 0.00 in
11:48 46.0 °F 27.4 °F 30.40 in NNW 6.0 mph 8.0 mph 48% 0.00 in
11:53 46.0 °F 26.9 °F 30.40 in NNE 4.0 mph 11.0 mph 47% 0.00 in
11:58 45.8 °F 27.2 °F 30.40 in NNW 12.0 mph 12.0 mph 48% 0.00 in
12:03 46.5 °F 28.9 °F 30.41 in NW 5.0 mph 11.0 mph 50% 0.00 in
12:08 46.7 °F 27.0 °F 30.41 in NNE 5.0 mph 8.0 mph 46% 0.00 in
12:13 47.1 °F 27.9 °F 30.41 in NW 8.0 mph 10.0 mph 47% 0.00 in
12:18 47.4 °F 26.6 °F 30.41 in NNW 8.0 mph 8.0 mph 44% 0.00 in
12:23 47.3 °F 26.0 °F 30.40 in NNW 7.0 mph 10.0 mph 43% 0.00 in
12:28 47.5 °F 25.6 °F 30.40 in NW 6.0 mph 7.0 mph 42% 0.00 in
12:33 47.7 °F 25.8 °F 30.40 in NW 8.0 mph 11.0 mph 42% 0.00 in
12:38 47.0 °F 25.7 °F 30.40 in NNE 2.0 mph 6.0 mph 43% 0.00 in
12:43 48.0 °F 28.2 °F 30.40 in NW 5.0 mph 7.0 mph 46% 0.00 in
12:48 48.2 °F 24.4 °F 30.40 in NNW 7.0 mph 8.0 mph 39% 0.00 in
12:53 48.2 °F 24.4 °F 30.40 in NNW 2.0 mph 8.0 mph 39% 0.00 in
12:58 48.4 °F 27.5 °F 30.40 in NNW 1.0 mph 7.0 mph 44% 0.00 in
13:03 48.5 °F 25.3 °F 30.40 in NNE 5.0 mph 10.0 mph 40% 0.00 in
13:08 49.2 °F 28.2 °F 30.40 in WNW 6.0 mph 6.0 mph 44% 0.00 in
13:13 49.3 °F 26.0 °F 30.40 in North 4.0 mph 10.0 mph 40% 0.00 in
13:18 49.1 °F 25.2 °F 30.40 in WSW 1.0 mph 6.0 mph 39% 0.00 in
13:23 49.4 °F 24.9 °F 30.40 in NNW 8.0 mph 13.0 mph 38% 0.00 in
13:29 48.9 °F 23.1 °F 30.40 in NW 4.0 mph 11.0 mph 36% 0.00 in
13:34 49.3 °F 24.1 °F 30.40 in NW 4.0 mph 15.0 mph 37% 0.00 in
13:39 49.7 °F 25.8 °F 30.40 in NW 6.0 mph 12.0 mph 39% 0.00 in
13:44 49.8 °F 24.6 °F 30.40 in NW 7.0 mph 8.0 mph 37% 0.00 in
13:49 49.7 °F 23.9 °F 30.40 in NW 7.0 mph 8.0 mph 36% 0.00 in
13:54 50.3 °F 24.4 °F 30.40 in NNW 6.0 mph 13.0 mph 36% 0.00 in
13:59 50.4 °F 23.8 °F 30.40 in West 8.0 mph 11.0 mph 35% 0.00 in
14:04 49.8 °F 22.6 °F 30.40 in NW 7.0 mph 10.0 mph 34% 0.00 in
14:09 50.2 °F 27.4 °F 30.40 in NW 9.0 mph 9.0 mph 41% 0.00 in
14:14 50.2 °F 22.9 °F 30.40 in WNW 7.0 mph 9.0 mph 34% 0.00 in
14:19 50.6 °F 26.0 °F 30.40 in North 8.0 mph 8.0 mph 38% 0.00 in
14:24 51.0 °F 22.9 °F 30.40 in WNW 3.0 mph 10.0 mph 33% 0.00 in
14:29 50.8 °F 21.3 °F 30.40 in NNW 2.0 mph 6.0 mph 31% 0.00 in
14:34 51.0 °F 22.9 °F 30.40 in NW 7.0 mph 9.0 mph 33% 0.00 in
14:39 51.2 °F 24.5 °F 30.39 in NW 4.0 mph 8.0 mph 35% 0.00 in
14:44 51.0 °F 22.2 °F 30.40 in NNW 3.0 mph 7.0 mph 32% 0.00 in
14:49 51.0 °F 25.7 °F 30.39 in North 4.0 mph 5.0 mph 37% 0.00 in
14:54 51.2 °F 24.5 °F 30.39 in North 6.0 mph 12.0 mph 35% 0.00 in
14:59 51.4 °F 25.4 °F 30.39 in NNE 5.0 mph 10.0 mph 36% 0.00 in
15:04 51.0 °F 22.9 °F 30.39 in East 2.0 mph 9.0 mph 33% 0.00 in
15:09 51.1 °F 24.4 °F 30.39 in NE 6.0 mph 9.0 mph 35% 0.00 in
15:14 51.5 °F 24.1 °F 30.38 in NNW 7.0 mph 12.0 mph 34% 0.00 in
15:19 51.8 °F 23.6 °F 30.39 in NNE 5.0 mph 11.0 mph 33% 0.00 in
15:24 51.7 °F 25.6 °F 30.38 in NNE 5.0 mph 10.0 mph 36% 0.00 in
15:29 51.8 °F 24.3 °F 30.39 in NNE 9.0 mph 11.0 mph 34% 0.00 in
15:34 51.8 °F 22.1 °F 30.39 in WNW 5.0 mph 9.0 mph 31% 0.00 in
15:39 51.9 °F 22.2 °F 30.39 in West 6.0 mph 10.0 mph 31% 0.00 in
15:45 52.2 °F 26.1 °F 30.39 in North 5.0 mph 7.0 mph 36% 0.00 in
15:50 52.2 °F 23.2 °F 30.38 in NNW 9.0 mph 9.0 mph 32% 0.00 in
15:55 52.0 °F 21.5 °F 30.38 in NNE 4.0 mph 6.0 mph 30% 0.00 in
16:00 52.0 °F 22.3 °F 30.38 in NE 5.0 mph 8.0 mph 31% 0.00 in
16:05 52.0 °F 23.1 °F 30.38 in NW 6.0 mph 9.0 mph 32% 0.00 in
16:10 52.2 °F 22.5 °F 30.38 in NE 6.0 mph 9.0 mph 31% 0.00 in
16:15 52.1 °F 23.9 °F 30.38 in NNE 3.0 mph 5.0 mph 33% 0.00 in
16:20 52.3 °F 23.3 °F 30.39 in North 8.0 mph 9.0 mph 32% 0.00 in
16:25 52.4 °F 21.9 °F 30.39 in North 8.0 mph 11.0 mph 30% 0.00 in
16:30 52.4 °F 22.7 °F 30.39 in NNW 3.0 mph 7.0 mph 31% 0.00 in
16:35 52.3 °F 21.0 °F 30.39 in SE 1.0 mph 3.0 mph 29% 0.00 in
16:40 52.5 °F 22.8 °F 30.39 in North 6.0 mph 10.0 mph 31% 0.00 in
16:45 52.4 °F 22.7 °F 30.39 in NE 2.0 mph 5.0 mph 31% 0.00 in
16:50 52.2 °F 20.9 °F 30.38 in NE 2.0 mph 7.0 mph 29% 0.00 in
16:55 52.2 °F 22.5 °F 30.38 in NE 5.0 mph 6.0 mph 31% 0.00 in
17:00 52.2 °F 23.2 °F 30.38 in NNW 7.0 mph 8.0 mph 32% 0.00 in
17:05 52.5 °F 25.0 °F 30.39 in NNW 3.0 mph 7.0 mph 34% 0.00 in
17:10 52.2 °F 22.5 °F 30.39 in NW 2.0 mph 7.0 mph 31% 0.00 in
17:15 52.3 °F 22.6 °F 30.39 in NE 3.0 mph 4.0 mph 31% 0.00 in
17:20 52.3 °F 21.8 °F 30.39 in NNW 4.0 mph 10.0 mph 30% 0.00 in
17:25 52.2 °F 21.7 °F 30.39 in NW 2.0 mph 5.0 mph 30% 0.00 in
17:30 52.4 °F 22.7 °F 30.39 in NNE 1.0 mph 3.0 mph 31% 0.00 in
17:35 52.2 °F 22.5 °F 30.39 in NNE 3.0 mph 7.0 mph 31% 0.00 in
17:41 52.0 °F 19.9 °F 30.39 in NNE 3.0 mph 5.0 mph 28% 0.00 in
17:46 52.1 °F 23.2 °F 30.39 in North 3.0 mph 4.0 mph 32% 0.00 in
17:51 52.1 °F 20.0 °F 30.39 in NNW 1.0 mph 4.0 mph 28% 0.00 in
17:56 52.1 °F 23.2 °F 30.39 in East 1.0 mph 4.0 mph 32% 0.00 in
18:01 51.6 °F 22.7 °F 30.39 in East 3.0 mph 5.0 mph 32% 0.00 in
18:06 51.3 °F 23.2 °F 30.39 in ENE 2.0 mph 4.0 mph 33% 0.00 in
18:11 51.2 °F 23.1 °F 30.39 in ENE 2.0 mph 3.0 mph 33% 0.00 in
18:16 51.0 °F 25.0 °F 30.39 in East 4.0 mph 4.0 mph 36% 0.00 in
18:21 50.6 °F 23.3 °F 30.39 in ENE 1.0 mph 5.0 mph 34% 0.00 in
18:26 50.4 °F 24.5 °F 30.39 in East 1.0 mph 2.0 mph 36% 0.00 in
18:31 50.1 °F 24.2 °F 30.38 in ENE 2.0 mph 3.0 mph 36% 0.00 in
18:36 49.5 °F 24.3 °F 30.39 in ENE 2.0 mph 3.0 mph 37% 0.00 in
18:41 49.1 °F 23.3 °F 30.39 in ENE 1.0 mph 3.0 mph 36% 0.00 in
18:46 48.8 °F 23.0 °F 30.39 in Calm   2.0 mph 36% 0.00 in
18:51 48.5 °F 22.8 °F 30.39 in Calm   1.0 mph 36% 0.00 in
18:56 48.2 °F 22.5 °F 30.39 in East 2.0 mph 2.0 mph 36% 0.00 in
19:01 47.9 °F 22.2 °F 30.39 in East 1.0 mph 2.0 mph 36% 0.00 in
19:06 47.6 °F 22.0 °F 30.39 in East 1.0 mph 1.0 mph 36% 0.00 in
19:12 47.3 °F 22.4 °F 30.39 in East 1.0 mph 2.0 mph 37% 0.00 in
19:17 47.3 °F 21.7 °F 30.39 in NE 1.0 mph 3.0 mph 36% 0.00 in
19:22 47.0 °F 22.7 °F 30.39 in East 2.0 mph 5.0 mph 38% 0.00 in
19:27 46.6 °F 23.0 °F 30.39 in East 3.0 mph 5.0 mph 39% 0.00 in
19:32 46.2 °F 23.2 °F 30.39 in East 3.0 mph 4.0 mph 40% 0.00 in
19:37 45.8 °F 24.0 °F 30.39 in ENE 2.0 mph 4.0 mph 42% 0.00 in
19:42 45.6 °F 23.3 °F 30.39 in East 2.0 mph 3.0 mph 41% 0.00 in
19:47 45.4 °F 23.1 °F 30.39 in ENE 2.0 mph 4.0 mph 41% 0.00 in
19:52 45.3 °F 23.0 °F 30.39 in East 1.0 mph 3.0 mph 41% 0.00 in
19:57 45.1 °F 23.4 °F 30.39 in East 3.0 mph 4.0 mph 42% 0.00 in
20:02 45.0 °F 22.7 °F 30.39 in ENE 4.0 mph 4.0 mph 41% 0.00 in
20:07 44.9 °F 22.6 °F 30.39 in East 2.0 mph 4.0 mph 41% 0.00 in
20:12 44.5 °F 23.4 °F 30.39 in NE 2.0 mph 4.0 mph 43% 0.00 in
20:17 44.2 °F 23.1 °F 30.39 in ENE 1.0 mph 3.0 mph 43% 0.00 in
20:22 44.2 °F 22.6 °F 30.39 in East 3.0 mph 3.0 mph 42% 0.00 in
20:27 44.2 °F 22.6 °F 30.39 in East 3.0 mph 4.0 mph 42% 0.00 in
20:32 44.0 °F 23.0 °F 30.39 in East 1.0 mph 3.0 mph 43% 0.00 in
20:37 43.8 °F 22.2 °F 30.39 in East 3.0 mph 4.0 mph 42% 0.00 in
20:42 43.6 °F 22.6 °F 30.39 in East 2.0 mph 5.0 mph 43% 0.00 in
20:47 43.5 °F 22.5 °F 30.39 in East 2.0 mph 4.0 mph 43% 0.00 in
20:52 43.2 °F 23.3 °F 30.40 in ESE 2.0 mph 2.0 mph 45% 0.00 in
20:57 42.8 °F 23.5 °F 30.40 in ENE 3.0 mph 3.0 mph 46% 0.00 in
21:02 42.4 °F 23.6 °F 30.40 in ESE 2.0 mph 3.0 mph 47% 0.00 in
21:07 41.9 °F 23.7 °F 30.40 in ESE 2.0 mph 3.0 mph 48% 0.00 in
21:12 41.6 °F 23.4 °F 30.40 in ESE 1.0 mph 2.0 mph 48% 0.00 in
21:17 41.4 °F 23.7 °F 30.40 in ESE 1.0 mph 2.0 mph 49% 0.00 in
21:22 41.1 °F 23.4 °F 30.40 in Calm   2.0 mph 49% 0.00 in
21:27 40.9 °F 23.2 °F 30.41 in ESE 2.0 mph 2.0 mph 49% 0.00 in
21:33 41.0 °F 22.8 °F 30.41 in ESE 2.0 mph 3.0 mph 48% 0.00 in
21:38 41.1 °F 22.4 °F 30.41 in East 2.0 mph 3.0 mph 47% 0.00 in
21:43 41.1 °F 22.9 °F 30.41 in ESE 2.0 mph 2.0 mph 48% 0.00 in
21:48 40.9 °F 22.7 °F 30.41 in East 3.0 mph 4.0 mph 48% 0.00 in
21:53 40.8 °F 23.1 °F 30.41 in ESE 1.0 mph 2.0 mph 49% 0.00 in
21:58 40.6 °F 23.0 °F 30.42 in East 1.0 mph 2.0 mph 49% 0.00 in
22:03 40.4 °F 23.2 °F 30.42 in East 1.0 mph 2.0 mph 50% 0.00 in
22:08 40.4 °F 22.8 °F 30.42 in East 1.0 mph 2.0 mph 49% 0.00 in
22:13 40.5 °F 22.9 °F 30.42 in ESE 2.0 mph 2.0 mph 49% 0.00 in
22:18 40.6 °F 23.0 °F 30.42 in Calm   2.0 mph 49% 0.00 in
22:23 40.6 °F 22.5 °F 30.43 in ESE 2.0 mph 2.0 mph 48% 0.00 in
22:28 40.6 °F 22.5 °F 30.42 in Calm   1.0 mph 48% 0.00 in
22:33 40.6 °F 22.0 °F 30.42 in ESE 3.0 mph 3.0 mph 47% 0.00 in
22:39 40.7 °F 22.5 °F 30.42 in ESE 2.0 mph 3.0 mph 48% 0.00 in
22:44 40.7 °F 22.1 °F 30.42 in ESE 3.0 mph 4.0 mph 47% 0.00 in
22:49 40.5 °F 22.9 °F 30.42 in East 2.0 mph 3.0 mph 49% 0.00 in
22:54 40.4 °F 22.3 °F 30.42 in ESE 3.0 mph 3.0 mph 48% 0.00 in
22:59 40.3 °F 22.2 °F 30.42 in ESE 4.0 mph 4.0 mph 48% 0.00 in
23:04 40.3 °F 22.2 °F 30.42 in ESE 2.0 mph 3.0 mph 48% 0.00 in
23:09 40.2 °F 22.6 °F 30.42 in ESE 3.0 mph 5.0 mph 49% 0.00 in
23:14 40.0 °F 22.4 °F 30.42 in ESE 3.0 mph 4.0 mph 49% 0.00 in
23:19 39.8 °F 22.7 °F 30.42 in ESE 3.0 mph 4.0 mph 50% 0.00 in
23:24 39.7 °F 22.6 °F 30.42 in ESE 2.0 mph 4.0 mph 50% 0.00 in
23:29 39.7 °F 22.6 °F 30.43 in SE 3.0 mph 4.0 mph 50% 0.00 in
23:34 39.6 °F 23.0 °F 30.42 in ESE 3.0 mph 4.0 mph 51% 0.00 in
23:39 39.4 °F 22.8 °F 30.42 in East 3.0 mph 4.0 mph 51% 0.00 in
23:44 39.2 °F 23.5 °F 30.42 in ESE 4.0 mph 4.0 mph 53% 0.00 in
23:49 39.0 °F 23.3 °F 30.42 in East 3.0 mph 4.0 mph 53% 0.00 in
23:54 38.6 °F 23.8 °F 30.42 in East 4.0 mph 5.0 mph 55% 0.00 in
23:59 38.5 °F 23.8 °F 30.41 in East 3.0 mph 5.0 mph 55% 0.00 in
Compliments of Weather Underground